CYBW/YBW METAR and TAF weather

Enter ICAO airport designator
Station Type Date Time Source
CYBW METAR 2021/10/22 18:00 UTC NOAA

CYBW 221800Z AUTO 18007KT 9SM CLR 06/M02 A2971 RMK SLP089 DENSITY ALT 4100FT


Station Type Date Time Source
CYBW Decoded METAR 2021/10/22 18:00 UTC NOAA

Calgary / Springbank, Canada (CYBW) 51-06N 114-22W
Oct 22, 2021 - 02:00 PM EDT / 2021.10.22 1800 UTC
Wind: from the S (180 degrees) at 8 MPH (7 KT):0
Visibility: 9 mile(s):0
Sky conditions: clear
Temperature: 42 F (6 C)
Dew Point: 28 F (-2 C)
Relative Humidity: 56%
Pressure (altimeter): 29.71 in. Hg (1006 hPa)
ob: CYBW 221800Z AUTO 18007KT 9SM CLR 06/M02 A2971 RMK SLP089 DENSITY ALT 4100FT
cycle: 18

Station Type Date Time Source
CYBW TAF 2021/10/22 18:00 UTC NOAA

TAF CYBW 221738Z 2218/2304 VRB03KT P6SM FEW060 BKN120 OVC200
BECMG 2218/2220 14008KT
FM230300 14008KT P6SM BKN060 OVC120
TEMPO 2303/2304 P6SM -SHRA
RMK FCST BASED ON AUTO OBS. NXT FCST BY 230000Z

Example: see airport list